Time;durP1;ratioP1;P1;durP2;ratioP2;P2;SDS_P1;SDS_P2;PMS_P1;PMS_P2;Temp;Humidity;BMP_temperature;BMP_pressure;BME280_temperature;BME280_humidity;BME280_pressure;Samples;Min_cycle;Max_cycle;Signal;HPM_P1;HPM_P2
2023/12/02 00:00:00;;;;;;;13.20;10.38;;;9.80;87.50;;;;;;12589989;28;20025;-72
2023/12/02 00:06:03;;;;;;;10.82;8.35;;;9.70;87.50;;;;;;12574105;28;20040;-72
2023/12/02 00:12:05;;;;;;;11.35;10.00;;;9.80;87.40;;;;;;12607196;28;20024;-72
2023/12/02 00:18:06;;;;;;;10.57;9.45;;;9.80;87.40;;;;;;12606905;28;20358;-72
2023/12/02 00:24:08;;;;;;;13.38;10.93;;;9.90;87.40;;;;;;12606445;28;20041;-72
2023/12/02 00:30:15;;;;;;;13.93;10.02;;;9.90;87.30;;;;;;12606278;28;20028;-72
2023/12/02 00:36:16;;;;;;;12.23;9.10;;;9.80;87.30;;;;;;12606013;28;20032;-72
2023/12/02 00:42:18;;;;;;;9.80;8.60;;;9.80;87.30;;;;;;12605722;28;20462;-72
2023/12/02 00:48:19;;;;;;;10.10;8.35;;;9.70;87.20;;;;;;12604183;28;20032;-72
2023/12/02 00:54:21;;;;;;;13.07;11.13;;;9.70;87.30;;;;;;12605016;28;20048;-72
2023/12/02 01:00:22;;;;;;;12.90;10.02;;;9.70;87.30;;;;;;12587191;28;20028;-72
2023/12/02 01:06:24;;;;;;;11.10;9.15;;;9.70;87.30;;;;;;12586851;28;20028;-72
2023/12/02 01:12:25;;;;;;;9.07;8.10;;;9.70;87.50;;;;;;12586674;28;20439;-72
2023/12/02 01:18:27;;;;;;;10.85;8.45;;;9.70;87.40;;;;;;12604233;28;20043;-72
2023/12/02 01:24:28;;;;;;;8.82;6.10;;;9.80;87.30;;;;;;12603559;28;20355;-72
2023/12/02 01:30:30;;;;;;;9.25;6.82;;;9.80;87.20;;;;;;12603814;28;20423;-72
2023/12/02 01:36:31;;;;;;;10.80;8.88;;;9.70;87.10;;;;;;12603698;28;20311;-72
2023/12/02 01:42:33;;;;;;;8.15;6.75;;;9.70;87.30;;;;;;12585707;28;20043;-72
2023/12/02 01:48:35;;;;;;;18.13;11.13;;;9.80;87.20;;;;;;12585641;28;20139;-72
2023/12/02 01:54:37;;;;;;;10.80;8.73;;;9.70;87.30;;;;;;12603208;28;20039;-72
2023/12/02 02:00:38;;;;;;;11.23;8.73;;;9.60;87.40;;;;;;12603675;28;20029;-72
2023/12/02 02:06:40;;;;;;;13.88;11.57;;;9.70;87.50;;;;;;12602931;28;20439;-72
2023/12/02 02:12:42;;;;;;;12.00;9.82;;;9.70;87.50;;;;;;12585120;28;20315;-72
2023/12/02 02:18:44;;;;;;;11.63;9.02;;;9.70;87.50;;;;;;12602712;28;20037;-72
2023/12/02 02:24:46;;;;;;;14.45;11.45;;;9.70;87.60;;;;;;12602536;28;20427;-72
2023/12/02 02:30:47;;;;;;;13.73;11.38;;;9.70;87.50;;;;;;12584667;28;20029;-72
2023/12/02 02:36:49;;;;;;;12.75;9.35;;;9.70;87.60;;;;;;12586265;28;20040;-72
2023/12/02 02:42:50;;;;;;;12.15;10.68;;;9.70;87.70;;;;;;12593558;28;20032;-72
2023/12/02 02:48:52;;;;;;;16.23;13.05;;;9.70;87.70;;;;;;12593369;28;20324;-72
2023/12/02 02:54:53;;;;;;;15.15;11.52;;;9.80;87.60;;;;;;12577014;28;20040;-72
2023/12/02 03:00:55;;;;;;;10.65;7.68;;;9.80;87.60;;;;;;12593463;28;20032;-72
2023/12/02 03:06:57;;;;;;;12.73;10.93;;;9.80;87.60;;;;;;12610351;28;20028;-72
2023/12/02 03:12:58;;;;;;;13.23;9.68;;;9.90;87.50;;;;;;12592236;28;20051;-72
2023/12/02 03:19:01;;;;;;;16.95;10.93;;;9.80;87.50;;;;;;12609911;28;20035;-73
2023/12/02 03:25:02;;;;;;;13.65;9.90;;;9.90;87.50;;;;;;12592447;28;20044;-73
2023/12/02 03:31:04;;;;;;;12.63;10.55;;;9.90;87.50;;;;;;12610274;28;20561;-73
2023/12/02 03:37:06;;;;;;;12.77;10.10;;;9.90;87.50;;;;;;12609051;28;20028;-73
2023/12/02 03:43:08;;;;;;;10.57;9.48;;;10.00;87.50;;;;;;12608771;28;20032;-73
2023/12/02 03:49:09;;;;;;;12.82;9.63;;;10.00;87.40;;;;;;12608063;28;20035;-73
2023/12/02 03:55:11;;;;;;;12.70;9.43;;;9.90;87.50;;;;;;12608142;28;20039;-73
2023/12/02 04:01:13;;;;;;;9.95;8.70;;;9.90;87.60;;;;;;12607982;28;20039;-73
2023/12/02 04:07:15;;;;;;;13.77;9.80;;;9.90;87.50;;;;;;12607592;28;20028;-73
2023/12/02 04:13:16;;;;;;;9.88;7.72;;;9.90;87.60;;;;;;12556873;28;20037;-73
2023/12/02 04:19:18;;;;;;;12.05;9.38;;;9.80;87.60;;;;;;12589255;28;20471;-73
2023/12/02 04:25:20;;;;;;;10.30;8.00;;;9.80;87.50;;;;;;12606645;28;20032;-73
2023/12/02 04:31:21;;;;;;;13.40;9.23;;;9.80;87.50;;;;;;12589116;28;20047;-72
2023/12/02 04:37:23;;;;;;;10.57;7.38;;;9.80;87.50;;;;;;12606117;28;20035;-72
2023/12/02 04:43:25;;;;;;;9.80;6.80;;;9.70;87.80;;;;;;12606509;28;20025;-73
2023/12/02 04:49:26;;;;;;;9.90;7.53;;;9.70;87.80;;;;;;12605397;28;20059;-72
2023/12/02 04:55:28;;;;;;;7.47;5.60;;;9.70;87.70;;;;;;12588091;28;20052;-72
2023/12/02 05:01:29;;;;;;;8.35;5.68;;;9.70;87.80;;;;;;12586697;28;20041;-73
2023/12/02 05:07:31;;;;;;;15.55;7.45;;;9.70;87.70;;;;;;12604657;28;20031;-73
2023/12/02 05:13:32;;;;;;;9.55;6.00;;;9.70;87.70;;;;;;12587409;28;20027;-73
2023/12/02 05:19:34;;;;;;;8.65;5.10;;;9.50;87.90;;;;;;12605002;28;20029;-75
2023/12/02 05:25:35;;;;;;;11.80;6.13;;;9.60;88.00;;;;;;12604056;28;20430;-75
2023/12/02 05:31:38;;;;;;;10.75;7.43;;;9.60;87.90;;;;;;12603971;28;20115;-75
2023/12/02 05:37:40;;;;;;;12.55;5.82;;;9.70;87.90;;;;;;12586581;28;20033;-75
2023/12/02 05:43:41;;;;;;;15.43;10.48;;;9.70;87.80;;;;;;12585876;28;20031;-75
2023/12/02 05:49:44;;;;;;;22.00;11.27;;;9.70;87.80;;;;;;12603437;28;20032;-74
2023/12/02 05:55:47;;;;;;;12.50;9.65;;;9.60;87.90;;;;;;12603454;28;20039;-75
2023/12/02 06:01:51;;;;;;;12.75;9.13;;;9.60;88.10;;;;;;12569489;28;20048;-74
2023/12/02 06:07:53;;;;;;;10.35;7.82;;;9.70;88.10;;;;;;12603749;28;20040;-75
2023/12/02 06:13:55;;;;;;;12.23;8.55;;;9.70;88.00;;;;;;12610841;28;20049;-75
2023/12/02 06:19:57;;;;;;;12.85;9.18;;;9.70;88.00;;;;;;12612730;28;20029;-75
2023/12/02 06:25:59;;;;;;;12.90;8.77;;;9.70;87.90;;;;;;12612271;28;20359;-75
2023/12/02 06:32:01;;;;;;;9.27;7.93;;;9.70;87.80;;;;;;12594934;28;20028;-75
2023/12/02 06:38:02;;;;;;;13.52;8.82;;;9.80;87.80;;;;;;12611817;28;20032;-76
2023/12/02 06:44:05;;;;;;;10.98;9.32;;;9.80;87.70;;;;;;12594185;28;20465;-75
2023/12/02 06:50:09;;;;;;;9.95;6.85;;;9.70;87.70;;;;;;12582064;22;20107;-75
2023/12/02 06:56:18;;;;;;;10.20;7.72;;;9.70;87.70;;;;;;12611013;28;20036;-75
2023/12/02 07:02:20;;;;;;;10.57;7.75;;;9.70;87.80;;;;;;12610315;28;20028;-75
2023/12/02 07:08:21;;;;;;;11.52;8.75;;;9.70;87.80;;;;;;12610271;28;20354;-75
2023/12/02 07:14:23;;;;;;;16.15;10.48;;;9.70;87.80;;;;;;12593517;28;20028;-75
2023/12/02 07:20:25;;;;;;;9.50;7.68;;;9.70;87.80;;;;;;12591224;28;20033;-75
2023/12/02 07:26:28;;;;;;;17.33;10.75;;;9.70;87.80;;;;;;12608576;28;20024;-75
2023/12/02 07:32:33;;;;;;;14.15;8.98;;;9.70;87.80;;;;;;12609189;28;20040;-75
2023/12/02 07:38:35;;;;;;;16.67;10.60;;;9.70;87.80;;;;;;12591515;28;20036;-75
2023/12/02 07:44:46;;;;;;;15.63;11.15;;;9.80;87.70;;;;;;12609596;28;20028;-75
2023/12/02 07:51:14;;;;;;;8.75;7.90;;;9.80;87.70;;;;;;12590841;28;20350;-75
2023/12/02 07:57:16;;;;;;;12.35;11.02;;;9.80;87.60;;;;;;12608275;28;20036;-75
2023/12/02 08:03:18;;;;;;;15.80;11.40;;;9.70;87.70;;;;;;12590337;28;20032;-75
2023/12/02 08:09:42;;;;;;;14.25;12.70;;;9.70;87.70;;;;;;12607501;28;20039;-75
2023/12/02 08:15:45;;;;;;;13.02;11.63;;;9.90;87.70;;;;;;12606917;28;20028;-75
2023/12/02 08:21:47;;;;;;;16.20;12.68;;;10.00;87.60;;;;;;12590033;28;20029;-75
2023/12/02 08:27:49;;;;;;;12.55;11.25;;;10.10;87.50;;;;;;12606601;28;20033;-72
2023/12/02 08:34:19;;;;;;;13.38;10.55;;;10.00;87.40;;;;;;12588302;28;20343;-72
2023/12/02 08:40:26;;;;;;;11.70;10.45;;;10.00;87.50;;;;;;12605908;28;20036;-72
2023/12/02 08:46:32;;;;;;;15.63;10.35;;;10.00;87.50;;;;;;12606230;28;20032;-72
2023/12/02 08:52:33;;;;;;;12.48;10.98;;;10.10;87.50;;;;;;12587754;28;20059;-72
2023/12/02 08:58:37;;;;;;;22.33;17.75;;;10.20;87.50;;;;;;12605080;28;20059;-71
2023/12/02 09:04:40;;;;;;;17.42;14.45;;;10.50;87.70;;;;;;12587895;28;20040;-72
2023/12/02 09:10:42;;;;;;;18.80;15.18;;;10.90;88.00;;;;;;12604573;28;20467;-72
2023/12/02 09:16:47;;;;;;;14.30;12.57;;;11.20;87.90;;;;;;12586929;28;20044;-71
2023/12/02 09:22:53;;;;;;;23.57;13.63;;;11.50;87.70;;;;;;12586410;28;20048;-71
2023/12/02 09:28:55;;;;;;;15.45;12.13;;;11.70;87.40;;;;;;12604020;28;20041;-73
2023/12/02 09:35:00;;;;;;;19.05;12.15;;;11.70;87.20;;;;;;12604038;28;20362;-72
2023/12/02 09:41:15;;;;;;;18.23;13.00;;;11.60;87.40;;;;;;12586591;28;20051;-72
2023/12/02 09:47:19;;;;;;;20.08;11.60;;;11.60;87.60;;;;;;12603841;28;20028;-72
2023/12/02 09:53:48;;;;;;;16.27;11.10;;;11.70;87.60;;;;;;12603886;28;20439;-72
2023/12/02 09:59:57;;;;;;;18.88;11.20;;;11.80;87.60;;;;;;12603370;28;20051;-73
2023/12/02 10:06:15;;;;;;;10.98;7.95;;;11.80;87.60;;;;;;12603120;28;20036;-72
2023/12/02 10:12:54;;;;;;;13.88;10.07;;;12.00;87.50;;;;;;12585074;28;20439;-72
2023/12/02 10:19:14;;;;;;;13.95;8.80;;;12.10;87.40;;;;;;12585681;28;20036;-73
2023/12/02 10:25:31;;;;;;;13.02;7.15;;;12.30;87.10;;;;;;12585124;28;20044;-75
2023/12/02 10:31:35;;;;;;;10.90;7.38;;;12.30;86.90;;;;;;12602510;28;20446;-76
2023/12/02 10:37:41;;;;;;;8.00;5.93;;;12.50;86.80;;;;;;12602421;28;20485;-75
2023/12/02 10:43:44;;;;;;;6.22;4.07;;;12.70;86.70;;;;;;12589129;28;20033;-76
2023/12/02 10:49:48;;;;;;;4.30;2.25;;;12.70;86.10;;;;;;12579837;28;20036;-75
2023/12/02 10:55:57;;;;;;;3.35;1.75;;;12.90;85.50;;;;;;12601926;28;20032;-75
2023/12/02 11:02:10;;;;;;;;;;;13.00;85.00;;;;;;12592440;28;20036;-76
2023/12/02 11:08:50;;;;;;;4.65;1.65;;;13.00;83.50;;;;;;12610455;28;19912;-76
2023/12/02 11:15:09;;;;;;;10.40;2.58;;;13.30;82.60;;;;;;12359453;28;20058;-73
2023/12/02 11:28:24;;;;;;;11.13;2.35;;;13.80;79.10;;;;;;12347380;28;20146;-73
2023/12/02 11:34:50;;;;;;;3.05;1.38;;;14.00;78.70;;;;;;12359204;28;20039;-74
2023/12/02 11:41:35;;;;;;;9.15;1.73;;;14.00;76.90;;;;;;12358189;28;20413;-73
2023/12/02 11:48:10;;;;;;;4.95;1.70;;;14.10;76.20;;;;;;12141603;29;20059;-73
2023/12/02 11:54:49;;;;;;;9.25;1.42;;;14.20;76.10;;;;;;12215139;29;20047;-72
2023/12/02 12:01:02;;;;;;;1.52;1.00;;;14.10;74.90;;;;;;12215847;29;20040;-71
2023/12/02 12:07:55;;;;;;;1.92;1.00;;;14.10;74.30;;;;;;12214785;29;20048;-71
2023/12/02 12:14:01;;;;;;;2.17;0.80;;;14.10;73.50;;;;;;12028837;29;20038;-73
2023/12/02 12:20:20;;;;;;;1.88;0.90;;;14.20;72.90;;;;;;12062888;29;20362;-73
2023/12/02 12:26:21;;;;;;;3.85;1.77;;;14.00;71.40;;;;;;12324589;28;20139;-73
2023/12/02 12:32:24;;;;;;;4.22;1.63;;;13.70;71.50;;;;;;12308005;29;20393;-76
2023/12/02 12:38:39;;;;;;;5.03;1.40;;;13.70;72.50;;;;;;12307759;29;20039;-76
2023/12/02 12:44:41;;;;;;;1.27;0.82;;;13.80;72.60;;;;;;12323580;28;20054;-75
2023/12/02 12:50:44;;;;;;;5.82;1.25;;;13.70;72.90;;;;;;12553600;28;20064;-76
2023/12/02 12:56:49;;;;;;;3.20;1.48;;;13.50;72.90;;;;;;12605846;28;20047;-75
2023/12/02 13:03:19;;;;;;;4.72;1.50;;;13.30;73.90;;;;;;12590964;28;20182;-75
2023/12/02 13:09:29;;;;;;;7.05;1.73;;;13.20;74.00;;;;;;12604798;28;20036;-75
2023/12/02 13:15:34;;;;;;;4.40;1.52;;;13.20;74.50;;;;;;12605106;28;20033;-75
2023/12/02 13:21:38;;;;;;;9.90;4.13;;;13.10;74.80;;;;;;12585273;28;20044;-76
2023/12/02 13:27:51;;;;;;;10.13;5.82;;;12.90;74.40;;;;;;12594308;28;20032;-77
2023/12/02 13:34:27;;;;;;;6.13;3.78;;;12.50;74.00;;;;;;12569864;28;20461;-74
2023/12/02 13:41:08;;;;;;;5.90;3.28;;;12.00;73.00;;;;;;12603910;28;20039;-74
2023/12/02 13:47:23;;;;;;;4.32;2.95;;;11.70;73.30;;;;;;12401237;28;20046;-75
2023/12/02 13:53:32;;;;;;;5.63;2.55;;;11.50;72.30;;;;;;12401177;28;20284;-76
2023/12/02 13:59:40;;;;;;;2.60;1.98;;;11.20;72.70;;;;;;12402097;28;20043;-77
2023/12/02 14:06:11;;;;;;;3.28;2.22;;;11.10;73.80;;;;;;12400780;28;20038;-77
2023/12/02 14:13:28;;;;;;;7.10;3.97;;;10.90;74.60;;;;;;12304738;28;20046;-77
2023/12/02 14:19:38;;;;;;;5.80;3.03;;;10.70;75.40;;;;;;12289288;28;20099;-74
2023/12/02 14:26:17;;;;;;;3.17;2.13;;;10.70;75.90;;;;;;12304180;28;20366;-73
2023/12/02 14:32:44;;;;;;;4.88;1.88;;;10.60;76.00;;;;;;12291039;28;20154;-76
2023/12/02 14:39:36;;;;;;;3.30;2.17;;;10.60;76.20;;;;;;12313135;28;20043;-76
2023/12/02 14:45:40;;;;;;;2.40;1.52;;;10.60;76.80;;;;;;12259211;28;20054;-74
2023/12/02 14:51:43;;;;;;;3.88;1.85;;;10.60;77.10;;;;;;12498359;22;20063;-77
2023/12/02 14:58:24;;;;;;;2.78;1.73;;;10.50;77.30;;;;;;12593207;28;20359;-76
2023/12/02 15:04:26;;;;;;;4.68;2.78;;;10.50;77.70;;;;;;12610779;28;20039;-74
2023/12/02 15:10:28;;;;;;;2.60;1.52;;;10.50;78.00;;;;;;12610418;28;20037;-76
2023/12/02 15:16:32;;;;;;;2.28;1.45;;;10.50;78.20;;;;;;12610244;28;20028;-73
2023/12/02 15:22:34;;;;;;;2.88;1.60;;;10.50;78.40;;;;;;12590336;28;20422;-76
2023/12/02 15:28:36;;;;;;;3.17;2.25;;;10.60;78.70;;;;;;12608875;28;20036;-73
2023/12/02 15:34:42;;;;;;;4.45;2.33;;;10.60;78.90;;;;;;12584858;28;20029;-73
2023/12/02 15:40:45;;;;;;;2.20;1.75;;;10.70;79.10;;;;;;12591503;28;20032;-73
2023/12/02 15:46:49;;;;;;;3.58;2.45;;;10.80;79.30;;;;;;12590293;28;20047;-74
2023/12/02 15:53:01;;;;;;;3.17;1.75;;;10.70;79.50;;;;;;12590704;28;20355;-76
2023/12/02 15:59:08;;;;;;;4.22;3.00;;;10.70;79.90;;;;;;12590526;28;20039;-73
2023/12/02 16:05:13;;;;;;;8.80;6.32;;;10.80;80.10;;;;;;12607854;28;20036;-73
2023/12/02 16:11:14;;;;;;;4.97;3.20;;;10.90;80.70;;;;;;12600544;28;20028;-73
2023/12/02 16:17:17;;;;;;;6.60;4.20;;;10.90;80.50;;;;;;12587478;28;20047;-73
2023/12/02 16:23:21;;;;;;;8.20;5.40;;;11.00;80.80;;;;;;12597446;28;20040;-75
2023/12/02 16:29:22;;;;;;;7.05;4.80;;;11.00;80.90;;;;;;12588129;28;20458;-73
2023/12/02 16:35:24;;;;;;;5.18;3.45;;;10.90;81.00;;;;;;12605512;28;20031;-73
2023/12/02 16:41:35;;;;;;;7.32;5.10;;;10.80;80.90;;;;;;12605970;28;20037;-75
2023/12/02 16:47:50;;;;;;;7.57;5.38;;;10.70;80.90;;;;;;12606907;28;20059;-73
2023/12/02 16:53:54;;;;;;;6.57;5.07;;;10.50;80.90;;;;;;12605855;28;20040;-73
2023/12/02 17:00:04;;;;;;;7.13;5.30;;;10.40;81.00;;;;;;12605010;28;20036;-73
2023/12/02 17:06:14;;;;;;;6.72;4.70;;;10.60;81.70;;;;;;12605453;28;20032;-73
2023/12/02 17:12:34;;;;;;;7.40;5.88;;;10.70;81.70;;;;;;12605592;28;20032;-75
2023/12/02 17:18:38;;;;;;;6.50;4.85;;;10.70;82.30;;;;;;12604477;28;20032;-73
2023/12/02 17:24:41;;;;;;;6.25;4.00;;;10.70;82.90;;;;;;12586341;28;20370;-73
2023/12/02 17:30:42;;;;;;;5.00;3.13;;;10.60;83.50;;;;;;12603981;28;20028;-75
2023/12/02 17:36:45;;;;;;;4.75;2.55;;;10.50;83.90;;;;;;12586142;28;20031;-72
2023/12/02 17:42:47;;;;;;;3.90;2.70;;;10.50;83.50;;;;;;12603899;28;20350;-71
2023/12/02 17:48:49;;;;;;;3.45;2.45;;;10.40;83.50;;;;;;12603530;28;20454;-72
2023/12/02 17:54:50;;;;;;;14.23;3.33;;;10.40;84.00;;;;;;12603367;28;20043;-73
2023/12/02 18:00:52;;;;;;;2.47;1.92;;;10.40;84.00;;;;;;12585493;28;20469;-72
2023/12/02 18:06:54;;;;;;;5.68;3.55;;;10.30;83.70;;;;;;12605323;28;20029;-71
2023/12/02 18:12:57;;;;;;;5.97;3.22;;;10.30;83.20;;;;;;12614009;28;20082;-71
2023/12/02 18:18:59;;;;;;;11.38;7.55;;;10.30;83.30;;;;;;12562323;28;20032;-72
2023/12/02 18:25:00;;;;;;;14.45;9.02;;;10.40;83.50;;;;;;12612691;28;20435;-72
2023/12/02 18:31:03;;;;;;;10.35;5.82;;;10.30;83.40;;;;;;12612268;28;20047;-72
2023/12/02 18:37:04;;;;;;;7.22;5.28;;;10.20;83.50;;;;;;12612012;28;20036;-72
2023/12/02 18:43:06;;;;;;;8.00;5.68;;;10.10;83.90;;;;;;12611694;28;20036;-71
2023/12/02 18:49:09;;;;;;;7.32;5.60;;;10.20;84.30;;;;;;12593927;28;20055;-75
2023/12/02 18:55:10;;;;;;;9.10;6.15;;;10.20;84.30;;;;;;12593667;28;20044;-75
2023/12/02 19:01:12;;;;;;;6.75;5.90;;;10.20;84.40;;;;;;12610995;28;20028;-75
2023/12/02 19:07:15;;;;;;;6.47;3.97;;;10.10;84.00;;;;;;12593473;28;20035;-75
2023/12/02 19:13:16;;;;;;;5.22;4.18;;;10.00;84.40;;;;;;12610459;28;20029;-75
2023/12/02 19:19:18;;;;;;;4.60;3.92;;;9.80;84.00;;;;;;12591379;28;20033;-75
2023/12/02 19:25:20;;;;;;;7.35;6.75;;;9.70;84.30;;;;;;12610535;28;20063;-75
2023/12/02 19:31:21;;;;;;;10.15;9.35;;;9.70;84.10;;;;;;12609620;28;20040;-75
2023/12/02 19:37:24;;;;;;;11.02;10.23;;;9.60;84.00;;;;;;12609371;28;20465;-75
2023/12/02 19:43:25;;;;;;;6.80;5.93;;;9.70;84.40;;;;;;12609043;28;20024;-75
2023/12/02 19:49:27;;;;;;;4.85;3.58;;;9.80;84.00;;;;;;12608578;28;20079;-74
2023/12/02 19:55:28;;;;;;;5.28;3.05;;;10.00;84.80;;;;;;12608521;28;20029;-75
2023/12/02 20:01:30;;;;;;;3.50;2.78;;;10.00;85.10;;;;;;12607986;28;20028;-75
2023/12/02 20:07:50;;;;;;;4.78;2.72;;;10.00;85.00;;;;;;12608014;28;20033;-74
2023/12/02 20:13:52;;;;;;;4.28;3.35;;;10.10;85.00;;;;;;12589880;28;20036;-72
2023/12/02 20:19:53;;;;;;;4.75;2.97;;;10.20;84.70;;;;;;12589442;28;20033;-73
2023/12/02 20:25:55;;;;;;;7.03;5.40;;;10.10;82.30;;;;;;12589296;28;20469;-72
2023/12/02 20:31:57;;;;;;;6.53;5.35;;;9.80;82.60;;;;;;12589448;28;20045;-71
2023/12/02 20:37:58;;;;;;;9.88;8.98;;;9.60;83.10;;;;;;12606266;28;20040;-72
2023/12/02 20:44:00;;;;;;;10.93;10.13;;;9.60;82.90;;;;;;12588333;28;20032;-71
2023/12/02 20:50:09;;;;;;;16.50;15.63;;;9.50;82.90;;;;;;12587920;28;20047;-71
2023/12/02 20:56:11;;;;;;;22.45;21.25;;;9.40;82.60;;;;;;12588297;28;20043;-72
2023/12/02 21:02:13;;;;;;;49.22;47.33;;;9.30;83.00;;;;;;12588111;28;20347;-72
2023/12/02 21:08:15;;;;;;;77.45;74.45;;;9.30;83.00;;;;;;12604952;28;20043;-71
2023/12/02 21:14:17;;;;;;;25.67;24.33;;;9.30;83.20;;;;;;12586992;28;20036;-72
2023/12/02 21:20:19;;;;;;;21.75;20.50;;;9.30;83.50;;;;;;12586855;28;20025;-71
2023/12/02 21:26:20;;;;;;;13.43;12.63;;;9.30;83.50;;;;;;12586448;28;20033;-72
2023/12/02 21:32:25;;;;;;;8.95;8.27;;;9.40;84.00;;;;;;12604066;28;20083;-71
2023/12/02 21:38:33;;;;;;;6.95;6.38;;;9.50;84.30;;;;;;12569582;28;20055;-72
2023/12/02 21:44:34;;;;;;;2.92;2.25;;;9.70;84.50;;;;;;12604424;28;20035;-72
2023/12/02 21:50:40;;;;;;;5.63;3.80;;;9.70;84.40;;;;;;12585920;28;20041;-72
2023/12/02 21:56:46;;;;;;;3.38;3.08;;;9.70;84.40;;;;;;12603463;28;20071;-72
2023/12/02 22:02:48;;;;;;;4.38;3.97;;;9.70;84.40;;;;;;12603270;28;20036;-72
2023/12/02 22:08:49;;;;;;;4.28;3.88;;;9.60;84.30;;;;;;12601805;28;20346;-72
2023/12/02 22:14:51;;;;;;;5.55;5.07;;;9.50;84.40;;;;;;12583939;28;20450;-72
2023/12/02 22:20:55;;;;;;;5.85;5.35;;;9.50;84.30;;;;;;12602981;28;20044;-72
2023/12/02 22:26:58;;;;;;;13.93;12.80;;;9.30;84.30;;;;;;12602810;28;20032;-72
2023/12/02 22:33:00;;;;;;;9.70;9.10;;;9.30;84.40;;;;;;12585446;28;20032;-72
2023/12/02 22:39:02;;;;;;;8.05;7.40;;;9.40;84.30;;;;;;12602681;28;20029;-72
2023/12/02 22:45:04;;;;;;;10.82;9.93;;;9.50;84.30;;;;;;12602443;28;20040;-72
2023/12/02 22:51:11;;;;;;;3.92;2.42;;;9.40;84.30;;;;;;12590375;22;20044;-72
2023/12/02 22:57:12;;;;;;;13.23;12.30;;;9.30;84.30;;;;;;12609751;28;20041;-72
2023/12/02 23:03:18;;;;;;;13.10;12.35;;;9.20;84.30;;;;;;12611063;28;20032;-73
2023/12/02 23:09:37;;;;;;;13.38;12.57;;;9.10;84.30;;;;;;12610680;28;20043;-72
2023/12/02 23:15:39;;;;;;;26.33;25.17;;;9.00;84.20;;;;;;12610518;28;20032;-73
2023/12/02 23:21:40;;;;;;;79.97;76.93;;;9.00;84.20;;;;;;12610189;28;20032;-72
2023/12/02 23:27:42;;;;;;;52.38;50.13;;;8.90;84.20;;;;;;12592893;28;20250;-73
2023/12/02 23:33:44;;;;;;;50.15;48.22;;;8.80;84.10;;;;;;12609687;28;20431;-72
2023/12/02 23:39:51;;;;;;;103.32;99.63;;;8.80;84.20;;;;;;12609397;28;20044;-73
2023/12/02 23:45:52;;;;;;;47.85;45.95;;;8.70;84.00;;;;;;12608993;28;20363;-73
2023/12/02 23:51:54;;;;;;;107.57;103.65;;;8.70;84.10;;;;;;12591172;28;20029;-72
2023/12/02 23:57:56;;;;;;;129.63;124.93;;;8.60;84.00;;;;;;12574449;28;20044;-72
